createdAt,value
2022-10-14T00:00:42.719Z,92.37
2022-10-14T00:03:09.133Z,92.62
2022-10-14T00:05:39.856Z,92.30
2022-10-14T00:08:08.780Z,92.51
2022-10-14T00:10:37.833Z,92.36
2022-10-14T00:13:04.332Z,92.38
2022-10-14T00:15:30.859Z,92.51
2022-10-14T00:17:57.360Z,92.42
2022-10-14T00:20:23.891Z,92.37
2022-10-14T00:22:51.445Z,92.35
2022-10-14T00:25:18.001Z,92.63
2022-10-14T00:27:44.368Z,92.19
2022-10-14T00:30:14.786Z,91.76
2022-10-14T00:32:41.763Z,92.17
2022-10-14T00:35:09.000Z,92.10
2022-10-14T00:37:35.396Z,92.14
2022-10-14T00:40:01.783Z,92.36
2022-10-14T00:42:32.696Z,92.63
2022-10-14T00:45:07.481Z,92.44
2022-10-14T00:47:35.669Z,92.47
2022-10-14T00:50:02.969Z,92.55
2022-10-14T00:52:30.634Z,92.35
2022-10-14T00:55:01.886Z,92.45
2022-10-14T00:57:29.419Z,92.20
2022-10-14T01:00:02.388Z,91.76
2022-10-14T01:02:29.756Z,92.05
2022-10-14T01:04:56.616Z,92.25
2022-10-14T01:07:32.297Z,92.26
2022-10-14T01:10:31.167Z,92.36
2022-10-14T01:13:17.089Z,92.10
2022-10-14T01:15:55.188Z,92.22
2022-10-14T01:18:48.702Z,92.30
2022-10-14T01:21:33.459Z,92.20
2022-10-14T01:24:18.720Z,91.78
2022-10-14T01:27:19.673Z,91.32
2022-10-14T01:30:01.253Z,91.52
2022-10-14T01:32:52.260Z,91.28
2022-10-14T01:35:37.194Z,91.26
2022-10-14T01:38:11.073Z,90.94
2022-10-14T01:40:46.613Z,91.29
2022-10-14T01:43:19.259Z,91.13
2022-10-14T01:45:49.525Z,91.78
2022-10-14T01:48:19.496Z,91.23
2022-10-14T01:50:49.830Z,91.51
2022-10-14T01:53:29.304Z,91.41
2022-10-14T01:55:57.557Z,91.42
2022-10-14T01:58:27.882Z,91.92
2022-10-14T02:00:54.774Z,91.36
2022-10-14T02:03:21.180Z,91.60
2022-10-14T02:06:03.494Z,91.92
2022-10-14T02:08:48.453Z,92.07
2022-10-14T02:11:18.011Z,91.72
2022-10-14T02:13:45.755Z,92.00
2022-10-14T02:16:52.766Z,91.51
2022-10-14T02:19:32.830Z,91.54
2022-10-14T02:22:08.531Z,91.69
2022-10-14T02:24:40.335Z,91.61
2022-10-14T02:27:14.723Z,91.02
2022-10-14T02:29:44.726Z,91.55
2022-10-14T02:32:15.190Z,90.88
2022-10-14T02:34:43.905Z,90.88
2022-10-14T02:37:12.556Z,90.57
2022-10-14T02:39:44.157Z,90.94
2022-10-14T02:42:10.716Z,90.87
2022-10-14T02:44:37.072Z,90.40
2022-10-14T02:47:03.593Z,90.34
2022-10-14T02:49:30.429Z,90.39
2022-10-14T02:51:57.048Z,91.02
2022-10-14T02:54:23.428Z,90.89
2022-10-14T02:56:49.838Z,90.77
2022-10-14T02:59:16.245Z,90.94
2022-10-14T03:01:42.759Z,90.91
2022-10-14T03:04:10.598Z,91.00
2022-10-14T03:06:37.000Z,90.62
2022-10-14T03:09:03.639Z,91.12
2022-10-14T03:11:34.561Z,91.21
2022-10-14T03:14:05.395Z,90.91
2022-10-14T03:16:31.957Z,91.27
2022-10-14T03:18:58.351Z,91.20
2022-10-14T03:21:39.325Z,91.49
2022-10-14T03:24:11.797Z,91.35
2022-10-14T03:26:38.764Z,91.32
2022-10-14T03:29:05.298Z,91.70
2022-10-14T03:31:52.200Z,91.67
2022-10-14T03:34:25.368Z,91.73
2022-10-14T03:37:02.433Z,91.90
2022-10-14T03:39:29.037Z,91.47
2022-10-14T03:42:02.382Z,92.16
2022-10-14T03:44:36.093Z,91.70
2022-10-14T03:47:16.193Z,91.86
2022-10-14T03:49:44.116Z,92.37
2022-10-14T03:52:17.902Z,92.09
2022-10-14T03:54:46.649Z,92.28
2022-10-14T03:57:15.769Z,92.52
2022-10-14T03:59:49.182Z,92.78
2022-10-14T04:02:16.434Z,92.91
2022-10-14T04:04:43.616Z,92.41
2022-10-14T04:07:10.613Z,92.88
2022-10-14T04:09:37.486Z,92.63
2022-10-14T04:12:06.537Z,92.39
2022-10-14T04:14:44.191Z,92.83
2022-10-14T04:17:10.824Z,92.82
2022-10-14T04:19:37.705Z,92.85
2022-10-14T04:22:04.649Z,92.88
2022-10-14T04:24:33.017Z,92.98
2022-10-14T04:26:59.513Z,93.09
2022-10-14T04:29:38.965Z,92.57
2022-10-14T04:32:12.588Z,92.38
2022-10-14T04:34:39.277Z,92.87
2022-10-14T04:37:07.161Z,92.78
2022-10-14T04:39:59.160Z,92.99
2022-10-14T04:42:26.266Z,92.80
2022-10-14T04:44:58.150Z,93.30
2022-10-14T04:47:35.718Z,93.31
2022-10-14T04:50:02.199Z,92.92
2022-10-14T04:52:31.609Z,93.36
2022-10-14T04:55:05.213Z,92.98
2022-10-14T04:57:36.671Z,93.27
2022-10-14T05:00:05.161Z,92.97
2022-10-14T05:02:54.525Z,93.05
2022-10-14T05:05:27.193Z,93.11
2022-10-14T05:07:56.764Z,93.60
2022-10-14T05:10:29.061Z,93.52
2022-10-14T05:12:55.961Z,93.15
2022-10-14T05:15:25.021Z,93.37
2022-10-14T05:18:00.314Z,93.41
2022-10-14T05:20:42.204Z,93.83
2022-10-14T05:23:08.600Z,93.81
2022-10-14T05:25:35.024Z,93.80
2022-10-14T05:28:01.485Z,94.19
2022-10-14T05:30:33.656Z,94.86
2022-10-14T05:33:01.645Z,95.20
2022-10-14T05:35:57.152Z,95.81
2022-10-14T05:38:15.960Z,95.55
2022-10-14T05:40:51.601Z,96.29
2022-10-14T05:43:18.229Z,96.17
2022-10-14T05:45:44.983Z,96.99
2022-10-14T05:48:11.425Z,97.39
2022-10-14T05:50:38.472Z,97.19
2022-10-14T05:53:11.421Z,97.71
2022-10-14T05:55:44.067Z,97.44
2022-10-14T05:58:10.693Z,97.51
2022-10-14T06:00:40.469Z,97.53
2022-10-14T06:03:13.071Z,97.65
2022-10-14T06:05:40.181Z,97.81
2022-10-14T06:08:07.653Z,97.76
2022-10-14T06:10:36.716Z,98.08
2022-10-14T06:13:03.649Z,97.66
2022-10-14T06:15:31.328Z,97.36
2022-10-14T06:17:57.771Z,97.27
2022-10-14T06:20:25.567Z,97.45
2022-10-14T06:22:51.935Z,97.27
2022-10-14T06:25:18.929Z,97.05
2022-10-14T06:27:45.313Z,97.44
2022-10-14T06:30:12.570Z,97.78
2022-10-14T06:32:38.983Z,97.20
2022-10-14T06:35:05.803Z,97.85
2022-10-14T06:37:32.192Z,97.42
2022-10-14T06:39:58.551Z,97.46
2022-10-14T06:42:25.256Z,97.44
2022-10-14T06:44:51.828Z,97.45
2022-10-14T06:47:18.236Z,97.32
2022-10-14T06:49:44.615Z,97.89
2022-10-14T06:52:11.122Z,97.47
2022-10-14T06:54:39.616Z,97.35
2022-10-14T06:57:06.433Z,98.04
2022-10-14T06:59:32.881Z,98.02
2022-10-14T07:01:59.310Z,97.38
2022-10-14T07:04:25.723Z,97.47
2022-10-14T07:06:52.316Z,97.44
2022-10-14T07:09:19.141Z,97.15
2022-10-14T07:11:45.562Z,97.15
2022-10-14T07:14:12.002Z,96.88
2022-10-14T07:16:38.518Z,96.53
2022-10-14T07:19:04.923Z,96.60
2022-10-14T07:21:31.349Z,96.50
2022-10-14T07:23:57.717Z,96.36
2022-10-14T07:26:24.118Z,96.33
2022-10-14T07:28:50.561Z,96.12
2022-10-14T07:31:17.021Z,96.18
2022-10-14T07:33:43.533Z,96.00
2022-10-14T07:36:15.110Z,95.67
2022-10-14T07:38:44.515Z,95.27
2022-10-14T07:41:17.176Z,95.16
2022-10-14T07:43:45.533Z,95.31
2022-10-14T07:46:13.591Z,95.38
2022-10-14T07:48:57.452Z,94.65
2022-10-14T07:51:24.618Z,93.94
2022-10-14T07:53:52.804Z,93.91
2022-10-14T07:56:19.835Z,93.56
2022-10-14T07:58:46.576Z,93.68
2022-10-14T08:01:15.274Z,93.10
2022-10-14T08:03:43.549Z,92.26
2022-10-14T08:06:10.116Z,92.22
2022-10-14T08:08:37.034Z,91.87
2022-10-14T08:11:19.508Z,91.80
2022-10-14T08:13:46.557Z,90.91
2022-10-14T08:16:12.964Z,91.11
2022-10-14T08:18:39.381Z,90.87
2022-10-14T08:21:05.739Z,90.54
2022-10-14T08:23:32.889Z,90.60
2022-10-14T08:25:59.359Z,90.14
2022-10-14T08:28:25.821Z,89.62
2022-10-14T08:30:53.326Z,89.52
2022-10-14T08:33:20.008Z,89.34
2022-10-14T08:35:50.227Z,89.28
2022-10-14T08:38:24.618Z,89.11
2022-10-14T08:41:06.286Z,88.81
2022-10-14T08:43:53.571Z,88.28
2022-10-14T08:46:51.137Z,87.66
2022-10-14T08:49:35.414Z,87.32
2022-10-14T08:52:09.216Z,87.07
2022-10-14T08:54:44.979Z,87.03
2022-10-14T08:57:17.634Z,87.46
2022-10-14T08:59:44.981Z,87.33
2022-10-14T09:02:47.704Z,86.72
2022-10-14T09:05:15.925Z,86.92
2022-10-14T09:07:43.532Z,86.71
2022-10-14T09:10:28.634Z,86.38
2022-10-14T09:12:58.588Z,86.17
2022-10-14T09:15:34.608Z,85.49
2022-10-14T09:18:31.091Z,85.97
2022-10-14T09:20:58.795Z,86.06
2022-10-14T09:23:27.674Z,86.22
2022-10-14T09:26:17.359Z,85.53
2022-10-14T09:28:45.013Z,85.50
2022-10-14T09:31:12.972Z,85.09
2022-10-14T09:33:42.581Z,84.59
2022-10-14T09:36:20.987Z,84.05
2022-10-14T09:38:52.689Z,83.92
2022-10-14T09:41:30.803Z,83.95
2022-10-14T09:44:32.794Z,84.27
2022-10-14T09:47:03.459Z,83.93
2022-10-14T09:49:39.460Z,83.51
2022-10-14T09:52:08.065Z,83.23
2022-10-14T09:54:35.060Z,83.05
2022-10-14T09:57:08.144Z,82.87
2022-10-14T09:59:51.430Z,83.42
2022-10-14T10:02:24.119Z,82.99
2022-10-14T10:04:50.941Z,82.87
2022-10-14T10:07:33.079Z,82.77
2022-10-14T10:10:02.623Z,82.64
2022-10-14T10:12:33.910Z,82.75
2022-10-14T10:15:06.234Z,82.75
2022-10-14T10:17:40.463Z,82.95
2022-10-14T10:20:18.834Z,82.71
2022-10-14T10:22:46.101Z,82.50
2022-10-14T10:25:12.450Z,82.01
2022-10-14T10:27:45.527Z,81.80
2022-10-14T10:30:14.684Z,81.94
2022-10-14T10:32:51.409Z,81.74
2022-10-14T10:35:52.033Z,81.78
2022-10-14T10:38:38.926Z,81.37
2022-10-14T10:41:36.242Z,80.84
2022-10-14T10:44:31.287Z,80.92
2022-10-14T10:47:14.906Z,80.87
2022-10-14T10:49:53.347Z,80.21
2022-10-14T10:52:44.779Z,79.96
2022-10-14T10:55:32.691Z,79.42
2022-10-14T10:58:11.598Z,78.59
2022-10-14T11:00:54.691Z,78.71
2022-10-14T11:03:44.346Z,79.11
2022-10-14T11:06:41.292Z,78.70
2022-10-14T11:09:38.402Z,78.29
2022-10-14T11:12:23.358Z,78.83
2022-10-14T11:15:08.371Z,78.78
2022-10-14T11:17:48.539Z,78.98
2022-10-14T11:20:43.936Z,78.69
2022-10-14T11:23:36.517Z,78.41
2022-10-14T11:26:20.636Z,77.24
2022-10-14T11:28:56.462Z,76.96
2022-10-14T11:31:47.205Z,77.21
2022-10-14T11:34:28.360Z,76.95
2022-10-14T11:37:22.014Z,76.84
2022-10-14T11:39:57.173Z,76.91
2022-10-14T11:42:32.517Z,77.36
2022-10-14T11:45:20.335Z,77.61
2022-10-14T11:48:04.223Z,77.03
2022-10-14T11:50:39.116Z,77.09
2022-10-14T11:53:16.475Z,77.22
2022-10-14T11:55:49.597Z,77.19
2022-10-14T11:58:22.574Z,77.29
2022-10-14T12:00:53.189Z,77.22
2022-10-14T12:03:49.838Z,76.37
2022-10-14T12:06:26.312Z,76.44
2022-10-14T12:08:57.570Z,76.36
2022-10-14T12:11:35.866Z,76.35
2022-10-14T12:14:40.770Z,76.42
2022-10-14T12:17:18.608Z,76.93
2022-10-14T12:19:45.790Z,76.83
2022-10-14T12:22:20.248Z,77.32
2022-10-14T12:24:52.269Z,78.29
2022-10-14T12:27:21.384Z,79.09
2022-10-14T12:29:51.383Z,79.58
2022-10-14T12:32:20.935Z,79.90
2022-10-14T12:34:49.920Z,79.82
2022-10-14T12:37:35.260Z,80.33
2022-10-14T12:40:02.059Z,80.45
2022-10-14T12:42:38.764Z,80.74
2022-10-14T12:45:34.763Z,81.31
2022-10-14T12:48:07.324Z,81.24
2022-10-14T12:50:42.357Z,81.99
2022-10-14T12:53:21.426Z,82.81
2022-10-14T12:55:54.532Z,83.24
2022-10-14T12:58:35.029Z,84.14
2022-10-14T13:01:21.893Z,84.36
2022-10-14T13:03:58.588Z,84.70
2022-10-14T13:06:29.870Z,85.20
2022-10-14T13:09:11.468Z,85.09
2022-10-14T13:11:46.451Z,84.87
2022-10-14T13:14:53.336Z,85.02
2022-10-14T13:17:41.705Z,84.79
2022-10-14T13:20:47.174Z,83.87
2022-10-14T13:23:35.882Z,83.58
2022-10-14T13:26:36.007Z,83.62
2022-10-14T13:29:16.155Z,83.29
2022-10-14T13:32:00.000Z,82.24
2022-10-14T13:34:41.269Z,81.59
2022-10-14T13:37:24.417Z,81.04
2022-10-14T13:39:50.805Z,80.92
2022-10-14T13:42:39.407Z,80.74
2022-10-14T13:45:12.658Z,80.31
2022-10-14T13:47:43.183Z,80.66
2022-10-14T13:50:12.226Z,80.92
2022-10-14T13:52:39.625Z,81.47
2022-10-14T13:55:22.019Z,81.22
2022-10-14T13:58:12.384Z,81.28
2022-10-14T14:00:59.721Z,81.84
2022-10-14T14:03:35.055Z,81.95
2022-10-14T14:06:08.821Z,81.68
2022-10-14T14:08:45.101Z,81.41
2022-10-14T14:11:38.300Z,81.84
2022-10-14T14:14:37.075Z,82.06
2022-10-14T14:17:06.569Z,82.24
2022-10-14T14:19:42.077Z,82.66
2022-10-14T14:22:28.934Z,82.72
2022-10-14T14:25:33.439Z,82.34
2022-10-14T14:28:05.749Z,82.31
2022-10-14T14:30:37.696Z,82.57
2022-10-14T14:33:10.896Z,82.42
2022-10-14T14:35:37.418Z,82.52
2022-10-14T14:38:04.097Z,82.98
2022-10-14T14:40:31.346Z,83.31
2022-10-14T14:43:00.659Z,83.36
2022-10-14T14:45:56.732Z,83.50
2022-10-14T14:48:23.776Z,83.53
2022-10-14T14:50:50.650Z,83.38
2022-10-14T14:53:20.637Z,84.08
2022-10-14T14:56:13.558Z,84.25
2022-10-14T14:58:47.015Z,84.52
2022-10-14T15:01:21.111Z,84.85
2022-10-14T15:04:13.647Z,84.92
2022-10-14T15:06:51.095Z,84.96
2022-10-14T15:09:23.405Z,85.05
2022-10-14T15:11:55.359Z,84.51
2022-10-14T15:14:49.211Z,84.84
2022-10-14T15:17:29.708Z,84.53
2022-10-14T15:19:59.833Z,85.00
2022-10-14T15:22:52.813Z,85.19
2022-10-14T15:25:31.376Z,85.55
2022-10-14T15:28:02.187Z,85.63
2022-10-14T15:30:40.658Z,85.58
2022-10-14T15:33:22.153Z,85.65
2022-10-14T15:36:13.532Z,86.07
2022-10-14T15:38:39.894Z,85.85
2022-10-14T15:41:06.277Z,86.08
2022-10-14T15:43:34.581Z,86.02
2022-10-14T15:46:19.705Z,86.13
2022-10-14T15:48:49.888Z,86.21
2022-10-14T15:51:17.880Z,86.23
2022-10-14T15:53:44.276Z,86.56
2022-10-14T15:56:10.787Z,86.67
2022-10-14T15:58:37.369Z,87.11
2022-10-14T16:01:04.905Z,87.16
2022-10-14T16:03:34.805Z,87.48
2022-10-14T16:06:07.587Z,87.60
2022-10-14T16:08:34.924Z,88.32
2022-10-14T16:11:04.270Z,88.34
2022-10-14T16:13:30.630Z,88.41
2022-10-14T16:16:00.483Z,88.50
2022-10-14T16:18:27.100Z,88.85
2022-10-14T16:20:57.178Z,88.98
2022-10-14T16:23:29.685Z,89.06
2022-10-14T16:26:00.100Z,89.02
2022-10-14T16:28:26.601Z,89.12
2022-10-14T16:30:53.081Z,89.47
2022-10-14T16:33:23.920Z,89.47
2022-10-14T16:35:53.160Z,89.49
2022-10-14T16:38:20.258Z,89.96
2022-10-14T16:40:54.329Z,89.97
2022-10-14T16:43:20.702Z,90.10
2022-10-14T16:45:47.161Z,90.57
2022-10-14T16:48:13.945Z,90.61
2022-10-14T16:50:40.313Z,90.60
2022-10-14T16:53:25.200Z,90.72
2022-10-14T16:55:56.680Z,91.06
2022-10-14T16:58:23.429Z,91.02
2022-10-14T17:00:49.822Z,91.29
2022-10-14T17:03:18.240Z,91.37
2022-10-14T17:05:46.889Z,91.82
2022-10-14T17:08:13.717Z,91.60
2022-10-14T17:10:41.838Z,91.83
2022-10-14T17:13:08.209Z,92.29
2022-10-14T17:15:37.933Z,92.51
2022-10-14T17:18:04.310Z,92.76
2022-10-14T17:20:30.698Z,92.70
2022-10-14T17:22:57.108Z,92.77
2022-10-14T17:25:23.477Z,93.14
2022-10-14T17:27:50.058Z,93.26
2022-10-14T17:30:16.742Z,93.04
2022-10-14T17:32:43.120Z,93.41
2022-10-14T17:35:12.832Z,93.45
2022-10-14T17:37:42.408Z,93.50
2022-10-14T17:40:09.381Z,93.51
2022-10-14T17:42:38.210Z,93.82
2022-10-14T17:45:05.022Z,93.77
2022-10-14T17:47:31.408Z,94.00
2022-10-14T17:49:57.781Z,93.99
2022-10-14T17:52:24.223Z,94.16
2022-10-14T17:54:50.652Z,94.19
2022-10-14T17:57:17.050Z,94.16
2022-10-14T17:59:43.393Z,94.45
2022-10-14T18:02:17.184Z,94.65
2022-10-14T18:04:43.684Z,94.55
2022-10-14T18:07:10.157Z,94.63
2022-10-14T18:09:36.559Z,94.99
2022-10-14T18:12:08.815Z,95.00
2022-10-14T18:14:35.942Z,94.83
2022-10-14T18:17:02.309Z,95.11
2022-10-14T18:19:28.765Z,94.97
2022-10-14T18:21:55.136Z,94.82
2022-10-14T18:24:21.635Z,94.83
2022-10-14T18:26:51.410Z,94.99
2022-10-14T18:29:17.921Z,94.66
2022-10-14T18:31:44.417Z,94.78
2022-10-14T18:34:11.812Z,94.83
2022-10-14T18:36:38.847Z,94.67
2022-10-14T18:39:08.093Z,94.83
2022-10-14T18:41:36.774Z,95.24
2022-10-14T18:44:04.568Z,95.18
2022-10-14T18:46:34.033Z,94.91
2022-10-14T18:49:02.255Z,95.16
2022-10-14T18:51:31.145Z,94.94
2022-10-14T18:54:00.693Z,94.93
2022-10-14T18:56:33.085Z,95.26
2022-10-14T19:01:36.684Z,95.50
2022-10-14T19:04:05.874Z,95.97
2022-10-14T19:06:33.510Z,96.11
2022-10-14T19:09:03.366Z,96.38
2022-10-14T19:11:31.848Z,96.36
2022-10-14T19:13:59.722Z,96.50
2022-10-14T19:16:27.749Z,96.71
2022-10-14T19:18:58.354Z,96.49
2022-10-14T19:21:32.075Z,96.59
2022-10-14T19:23:59.813Z,96.46
2022-10-14T19:26:30.944Z,96.46
2022-10-14T19:28:59.060Z,96.41
2022-10-14T19:31:28.339Z,96.09
2022-10-14T19:33:56.175Z,95.84
2022-10-14T19:36:24.874Z,95.66
2022-10-14T19:38:57.654Z,95.59
2022-10-14T19:41:32.119Z,94.99
2022-10-14T19:43:59.665Z,95.46
2022-10-14T19:46:27.780Z,95.52
2022-10-14T19:49:02.155Z,94.84
2022-10-14T19:51:29.176Z,94.58
2022-10-14T19:53:56.024Z,94.93
2022-10-14T19:56:22.819Z,95.09
2022-10-14T19:58:52.877Z,95.28
2022-10-14T20:01:21.063Z,95.22
2022-10-14T20:03:47.557Z,95.27
2022-10-14T20:06:14.202Z,95.29
2022-10-14T20:08:41.249Z,95.58
2022-10-14T20:11:10.250Z,95.97
2022-10-14T20:13:39.926Z,95.73
2022-10-14T20:16:08.801Z,95.98
2022-10-14T20:18:35.525Z,96.22
2022-10-14T20:21:03.201Z,96.45
2022-10-14T20:23:29.715Z,96.84
2022-10-14T20:26:00.852Z,97.36
2022-10-14T20:28:27.385Z,97.67
2022-10-14T20:30:54.225Z,97.67
2022-10-14T20:33:20.969Z,97.87
2022-10-14T20:35:47.354Z,98.21
2022-10-14T20:38:13.833Z,98.34
2022-10-14T20:40:40.296Z,98.62
2022-10-14T20:43:06.682Z,98.91
2022-10-14T20:45:33.114Z,99.14
2022-10-14T20:47:59.510Z,99.08
2022-10-14T20:50:26.053Z,99.83
2022-10-14T20:52:52.465Z,100.00
2022-10-14T20:55:18.969Z,100.00
2022-10-14T20:57:46.167Z,100.00
2022-10-14T21:00:13.207Z,100.00
2022-10-14T21:02:39.636Z,100.00
2022-10-14T21:05:06.295Z,100.00
2022-10-14T21:07:32.665Z,100.00
2022-10-14T21:09:59.006Z,100.00
2022-10-14T21:12:26.024Z,100.00
2022-10-14T21:14:52.718Z,100.00
2022-10-14T21:17:19.306Z,100.00
2022-10-14T21:19:48.062Z,100.00
2022-10-14T21:22:14.575Z,100.00
2022-10-14T21:24:41.614Z,100.00
2022-10-14T21:27:08.113Z,100.00
2022-10-14T21:29:34.618Z,100.00
2022-10-14T21:32:02.494Z,100.00
2022-10-14T21:34:30.047Z,100.00
2022-10-14T21:36:56.859Z,100.00
2022-10-14T21:39:24.204Z,100.00
2022-10-14T21:41:51.340Z,100.00
2022-10-14T21:44:20.306Z,100.00
2022-10-14T21:46:48.014Z,100.00
2022-10-14T21:49:14.813Z,100.00
2022-10-14T21:51:41.334Z,100.00
2022-10-14T21:54:10.743Z,100.00
2022-10-14T21:56:37.183Z,100.00
2022-10-14T21:59:04.172Z,100.00
2022-10-14T22:01:30.802Z,100.00
2022-10-14T22:04:00.648Z,100.00
2022-10-14T22:06:27.784Z,100.00
2022-10-14T22:08:56.273Z,100.00
2022-10-14T22:11:30.126Z,100.00
2022-10-14T22:13:58.775Z,100.00
2022-10-14T22:16:26.151Z,100.00
2022-10-14T22:18:53.671Z,100.00
2022-10-14T22:21:23.267Z,100.00
2022-10-14T22:23:50.711Z,100.00
2022-10-14T22:26:22.920Z,100.00
2022-10-14T22:28:50.178Z,100.00
2022-10-14T22:31:19.464Z,100.00
2022-10-14T22:33:46.072Z,100.00
2022-10-14T22:36:21.027Z,100.00
2022-10-14T22:38:52.333Z,100.00
2022-10-14T22:41:20.162Z,100.00
2022-10-14T22:43:51.746Z,100.00
2022-10-14T22:46:20.375Z,100.00
2022-10-14T22:48:56.011Z,100.00
2022-10-14T22:53:57.033Z,100.00
2022-10-14T22:56:25.621Z,100.00
2022-10-14T22:58:57.158Z,100.00
2022-10-14T23:01:24.079Z,100.00
2022-10-14T23:03:50.540Z,100.00
2022-10-14T23:06:17.142Z,100.00
2022-10-14T23:08:43.936Z,100.00
2022-10-14T23:11:15.286Z,100.00
2022-10-14T23:13:42.096Z,100.00
2022-10-14T23:16:13.788Z,100.00
2022-10-14T23:21:20.376Z,100.00
2022-10-14T23:23:48.605Z,100.00
2022-10-14T23:26:17.558Z,100.00
2022-10-14T23:28:49.091Z,100.00
2022-10-14T23:31:17.902Z,100.00
2022-10-14T23:33:44.810Z,100.00
2022-10-14T23:36:13.266Z,100.00
2022-10-14T23:38:40.263Z,100.00
2022-10-14T23:41:07.857Z,100.00
2022-10-14T23:43:34.522Z,100.00
2022-10-14T23:46:01.282Z,100.00
2022-10-14T23:48:28.019Z,100.00
2022-10-14T23:50:54.886Z,100.00
2022-10-14T23:53:21.448Z,100.00
2022-10-14T23:55:47.868Z,100.00
2022-10-14T23:58:14.889Z,100.00
